Terminal Aerodrome Forecast
Issued by NWS

Current Version | Previous Version | Text Only | Print | Product List | Glossary On
Versions: 1 2 3 4 5 6 7 8 9 10 11 12 13 14 15 16 17 18 19 20 21 22 23 24 25 26 27 28 29 30 31 32 33 34 35 36
000
FTUS41 KRNK 170719 AAA
TAFLWB
TAF AMD
KLWB 170719Z 1707/1806 00000KT 1/4SM FG OVC001
      TEMPO 1707/1710 3SM BR SCT005 BKN035
     FM171400 14003KT P6SM SCT007 OVC025
     FM171800 23003KT P6SM BKN040
     FM180000 00000KT P6SM SCT035=

USA.gov is the U.S. government's official web portal to all federal, state and local government web resources and services.